sensor_id;sensor_type;location;lat;lon;timestamp;P1;durP1;ratioP1;P2;durP2;ratioP2
33266;SDS011;19638;49.080;11.896;2023-04-30T00:02:56;11.60;;;7.00;;
33266;SDS011;19638;49.080;11.896;2023-04-30T00:07:03;13.50;;;7.60;;
33266;SDS011;19638;49.080;11.896;2023-04-30T00:11:06;11.93;;;6.85;;
33266;SDS011;19638;49.080;11.896;2023-04-30T00:15:10;8.40;;;6.63;;
33266;SDS011;19638;49.080;11.896;2023-04-30T00:19:15;10.05;;;7.03;;
33266;SDS011;19638;49.080;11.896;2023-04-30T00:23:20;16.58;;;7.18;;
33266;SDS011;19638;49.080;11.896;2023-04-30T00:27:23;10.32;;;7.03;;
33266;SDS011;19638;49.080;11.896;2023-04-30T00:31:26;8.38;;;6.50;;
33266;SDS011;19638;49.080;11.896;2023-04-30T00:35:29;9.93;;;7.05;;
33266;SDS011;19638;49.080;11.896;2023-04-30T00:39:35;11.90;;;7.88;;
33266;SDS011;19638;49.080;11.896;2023-04-30T00:43:41;11.23;;;7.90;;
33266;SDS011;19638;49.080;11.896;2023-04-30T00:47:47;9.77;;;7.32;;
33266;SDS011;19638;49.080;11.896;2023-04-30T00:52:01;13.13;;;8.60;;
33266;SDS011;19638;49.080;11.896;2023-04-30T00:56:06;12.50;;;7.90;;
33266;SDS011;19638;49.080;11.896;2023-04-30T01:00:11;11.27;;;7.75;;
33266;SDS011;19638;49.080;11.896;2023-04-30T01:04:16;10.23;;;8.10;;
33266;SDS011;19638;49.080;11.896;2023-04-30T01:08:20;11.75;;;8.35;;
33266;SDS011;19638;49.080;11.896;2023-04-30T01:12:28;10.10;;;8.20;;
33266;SDS011;19638;49.080;11.896;2023-04-30T01:16:40;10.05;;;7.82;;
33266;SDS011;19638;49.080;11.896;2023-04-30T01:20:49;12.57;;;8.65;;
33266;SDS011;19638;49.080;11.896;2023-04-30T01:25:04;11.80;;;8.32;;
33266;SDS011;19638;49.080;11.896;2023-04-30T01:29:18;12.77;;;8.70;;
33266;SDS011;19638;49.080;11.896;2023-04-30T01:33:26;11.48;;;8.20;;
33266;SDS011;19638;49.080;11.896;2023-04-30T01:37:30;12.75;;;8.70;;
33266;SDS011;19638;49.080;11.896;2023-04-30T01:41:44;15.27;;;9.27;;
33266;SDS011;19638;49.080;11.896;2023-04-30T01:46:00;11.25;;;8.77;;
33266;SDS011;19638;49.080;11.896;2023-04-30T01:50:17;13.65;;;8.75;;
33266;SDS011;19638;49.080;11.896;2023-04-30T01:54:28;14.10;;;9.43;;
33266;SDS011;19638;49.080;11.896;2023-04-30T01:58:40;13.10;;;9.55;;
33266;SDS011;19638;49.080;11.896;2023-04-30T02:02:46;15.90;;;9.63;;
33266;SDS011;19638;49.080;11.896;2023-04-30T02:06:54;15.23;;;10.65;;
33266;SDS011;19638;49.080;11.896;2023-04-30T02:10:59;14.10;;;9.90;;
33266;SDS011;19638;49.080;11.896;2023-04-30T02:15:02;12.73;;;9.07;;
33266;SDS011;19638;49.080;11.896;2023-04-30T02:19:07;17.45;;;9.55;;
33266;SDS011;19638;49.080;11.896;2023-04-30T02:23:11;13.13;;;9.27;;
33266;SDS011;19638;49.080;11.896;2023-04-30T02:27:15;15.80;;;9.93;;
33266;SDS011;19638;49.080;11.896;2023-04-30T02:31:18;12.98;;;9.25;;
33266;SDS011;19638;49.080;11.896;2023-04-30T02:35:26;15.48;;;10.10;;
33266;SDS011;19638;49.080;11.896;2023-04-30T02:39:31;13.63;;;9.95;;
33266;SDS011;19638;49.080;11.896;2023-04-30T02:43:39;15.13;;;9.43;;
33266;SDS011;19638;49.080;11.896;2023-04-30T02:47:42;13.32;;;9.38;;
33266;SDS011;19638;49.080;11.896;2023-04-30T02:51:50;14.13;;;9.70;;
33266;SDS011;19638;49.080;11.896;2023-04-30T02:55:54;14.70;;;9.70;;
33266;SDS011;19638;49.080;11.896;2023-04-30T02:59:59;17.85;;;9.98;;
33266;SDS011;19638;49.080;11.896;2023-04-30T03:04:04;16.98;;;10.70;;
33266;SDS011;19638;49.080;11.896;2023-04-30T03:08:11;18.63;;;12.65;;
33266;SDS011;19638;49.080;11.896;2023-04-30T03:12:14;16.00;;;11.15;;
33266;SDS011;19638;49.080;11.896;2023-04-30T03:16:18;18.23;;;11.30;;
33266;SDS011;19638;49.080;11.896;2023-04-30T03:20:23;19.85;;;11.25;;
33266;SDS011;19638;49.080;11.896;2023-04-30T03:24:29;16.83;;;10.88;;
33266;SDS011;19638;49.080;11.896;2023-04-30T03:28:33;18.20;;;11.25;;
33266;SDS011;19638;49.080;11.896;2023-04-30T03:32:38;23.00;;;12.25;;
33266;SDS011;19638;49.080;11.896;2023-04-30T03:36:41;18.02;;;11.07;;
33266;SDS011;19638;49.080;11.896;2023-04-30T03:40:45;17.55;;;11.02;;
33266;SDS011;19638;49.080;11.896;2023-04-30T03:44:51;22.00;;;11.15;;
33266;SDS011;19638;49.080;11.896;2023-04-30T03:48:54;19.58;;;12.18;;
33266;SDS011;19638;49.080;11.896;2023-04-30T03:53:00;20.65;;;12.60;;
33266;SDS011;19638;49.080;11.896;2023-04-30T03:57:05;21.50;;;12.40;;
33266;SDS011;19638;49.080;11.896;2023-04-30T04:01:11;19.00;;;12.48;;
33266;SDS011;19638;49.080;11.896;2023-04-30T04:05:14;22.92;;;12.68;;
33266;SDS011;19638;49.080;11.896;2023-04-30T04:09:22;22.98;;;12.85;;
33266;SDS011;19638;49.080;11.896;2023-04-30T04:13:29;24.05;;;13.63;;
33266;SDS011;19638;49.080;11.896;2023-04-30T04:17:35;20.75;;;13.98;;
33266;SDS011;19638;49.080;11.896;2023-04-30T04:21:40;20.58;;;12.55;;
33266;SDS011;19638;49.080;11.896;2023-04-30T04:25:44;20.70;;;13.13;;
33266;SDS011;19638;49.080;11.896;2023-04-30T04:29:53;22.52;;;12.75;;
33266;SDS011;19638;49.080;11.896;2023-04-30T04:33:58;23.52;;;13.25;;
33266;SDS011;19638;49.080;11.896;2023-04-30T04:38:03;24.23;;;13.88;;
33266;SDS011;19638;49.080;11.896;2023-04-30T04:42:06;19.52;;;12.85;;
33266;SDS011;19638;49.080;11.896;2023-04-30T04:46:11;21.45;;;14.10;;
33266;SDS011;19638;49.080;11.896;2023-04-30T04:50:17;23.90;;;13.52;;
33266;SDS011;19638;49.080;11.896;2023-04-30T04:54:21;21.83;;;13.60;;
33266;SDS011;19638;49.080;11.896;2023-04-30T04:58:24;21.40;;;13.90;;
33266;SDS011;19638;49.080;11.896;2023-04-30T05:02:29;20.40;;;13.30;;
33266;SDS011;19638;49.080;11.896;2023-04-30T05:06:32;20.13;;;13.20;;
33266;SDS011;19638;49.080;11.896;2023-04-30T05:10:35;22.25;;;13.93;;
33266;SDS011;19638;49.080;11.896;2023-04-30T05:14:41;20.88;;;12.65;;
33266;SDS011;19638;49.080;11.896;2023-04-30T05:18:48;19.17;;;12.07;;
33266;SDS011;19638;49.080;11.896;2023-04-30T05:22:52;21.95;;;12.18;;
33266;SDS011;19638;49.080;11.896;2023-04-30T05:26:55;29.52;;;13.57;;
33266;SDS011;19638;49.080;11.896;2023-04-30T05:30:59;23.65;;;12.70;;
33266;SDS011;19638;49.080;11.896;2023-04-30T05:35:03;22.88;;;14.52;;
33266;SDS011;19638;49.080;11.896;2023-04-30T05:39:10;24.02;;;13.90;;
33266;SDS011;19638;49.080;11.896;2023-04-30T05:43:13;21.55;;;14.23;;
33266;SDS011;19638;49.080;11.896;2023-04-30T05:47:17;22.17;;;13.75;;
33266;SDS011;19638;49.080;11.896;2023-04-30T05:51:21;24.35;;;14.77;;
33266;SDS011;19638;49.080;11.896;2023-04-30T05:55:28;26.08;;;13.90;;
33266;SDS011;19638;49.080;11.896;2023-04-30T05:59:31;22.65;;;14.15;;
33266;SDS011;19638;49.080;11.896;2023-04-30T06:03:34;22.83;;;13.55;;
33266;SDS011;19638;49.080;11.896;2023-04-30T06:07:38;21.77;;;13.70;;
33266;SDS011;19638;49.080;11.896;2023-04-30T06:11:44;20.20;;;13.55;;
33266;SDS011;19638;49.080;11.896;2023-04-30T06:15:50;24.65;;;14.13;;
33266;SDS011;19638;49.080;11.896;2023-04-30T06:19:53;23.42;;;13.88;;
33266;SDS011;19638;49.080;11.896;2023-04-30T06:24:00;25.30;;;14.25;;
33266;SDS011;19638;49.080;11.896;2023-04-30T06:28:06;20.35;;;13.70;;
33266;SDS011;19638;49.080;11.896;2023-04-30T06:32:10;20.17;;;13.35;;
33266;SDS011;19638;49.080;11.896;2023-04-30T06:36:15;21.13;;;13.63;;
33266;SDS011;19638;49.080;11.896;2023-04-30T06:40:20;20.83;;;14.10;;
33266;SDS011;19638;49.080;11.896;2023-04-30T06:44:23;24.23;;;14.48;;
33266;SDS011;19638;49.080;11.896;2023-04-30T06:48:35;21.35;;;14.15;;
33266;SDS011;19638;49.080;11.896;2023-04-30T06:52:41;22.02;;;14.93;;
33266;SDS011;19638;49.080;11.896;2023-04-30T06:56:45;20.17;;;13.60;;
33266;SDS011;19638;49.080;11.896;2023-04-30T07:00:50;20.30;;;13.73;;
33266;SDS011;19638;49.080;11.896;2023-04-30T07:04:54;20.48;;;12.88;;
33266;SDS011;19638;49.080;11.896;2023-04-30T07:09:01;21.75;;;13.95;;
33266;SDS011;19638;49.080;11.896;2023-04-30T07:13:06;18.58;;;12.90;;
33266;SDS011;19638;49.080;11.896;2023-04-30T07:17:09;18.83;;;12.73;;
33266;SDS011;19638;49.080;11.896;2023-04-30T07:21:13;18.15;;;12.40;;
33266;SDS011;19638;49.080;11.896;2023-04-30T07:25:18;14.73;;;11.00;;
33266;SDS011;19638;49.080;11.896;2023-04-30T07:29:23;17.50;;;10.98;;
33266;SDS011;19638;49.080;11.896;2023-04-30T07:33:27;15.20;;;10.98;;
33266;SDS011;19638;49.080;11.896;2023-04-30T07:37:32;13.85;;;10.27;;
33266;SDS011;19638;49.080;11.896;2023-04-30T07:41:40;13.98;;;9.82;;
33266;SDS011;19638;49.080;11.896;2023-04-30T07:45:44;14.43;;;10.85;;
33266;SDS011;19638;49.080;11.896;2023-04-30T07:49:52;12.75;;;9.25;;
33266;SDS011;19638;49.080;11.896;2023-04-30T07:53:57;14.63;;;9.20;;
33266;SDS011;19638;49.080;11.896;2023-04-30T07:58:02;16.02;;;8.85;;
33266;SDS011;19638;49.080;11.896;2023-04-30T08:02:07;13.55;;;9.30;;
33266;SDS011;19638;49.080;11.896;2023-04-30T08:06:10;11.90;;;6.97;;
33266;SDS011;19638;49.080;11.896;2023-04-30T08:10:13;9.10;;;7.20;;
33266;SDS011;19638;49.080;11.896;2023-04-30T08:14:19;9.60;;;6.68;;
33266;SDS011;19638;49.080;11.896;2023-04-30T08:18:25;8.70;;;7.05;;
33266;SDS011;19638;49.080;11.896;2023-04-30T08:22:32;7.65;;;6.18;;
33266;SDS011;19638;49.080;11.896;2023-04-30T08:26:35;11.30;;;7.28;;
33266;SDS011;19638;49.080;11.896;2023-04-30T08:30:40;10.65;;;8.23;;
33266;SDS011;19638;49.080;11.896;2023-04-30T08:34:45;11.48;;;8.45;;
33266;SDS011;19638;49.080;11.896;2023-04-30T08:38:48;12.60;;;7.80;;
33266;SDS011;19638;49.080;11.896;2023-04-30T08:42:52;11.25;;;6.43;;
33266;SDS011;19638;49.080;11.896;2023-04-30T08:47:05;7.47;;;5.97;;
33266;SDS011;19638;49.080;11.896;2023-04-30T08:51:11;11.25;;;6.72;;
33266;SDS011;19638;49.080;11.896;2023-04-30T08:55:14;11.27;;;6.88;;
33266;SDS011;19638;49.080;11.896;2023-04-30T08:59:18;9.07;;;6.65;;
33266;SDS011;19638;49.080;11.896;2023-04-30T09:03:21;7.15;;;6.05;;
33266;SDS011;19638;49.080;11.896;2023-04-30T09:07:26;14.90;;;5.78;;
33266;SDS011;19638;49.080;11.896;2023-04-30T09:11:36;4.80;;;4.20;;
33266;SDS011;19638;49.080;11.896;2023-04-30T09:15:39;6.50;;;5.60;;
33266;SDS011;19638;49.080;11.896;2023-04-30T09:19:46;10.38;;;6.22;;
33266;SDS011;19638;49.080;11.896;2023-04-30T09:23:57;7.70;;;5.60;;
33266;SDS011;19638;49.080;11.896;2023-04-30T09:28:08;8.35;;;6.45;;
33266;SDS011;19638;49.080;11.896;2023-04-30T09:32:12;11.40;;;7.00;;
33266;SDS011;19638;49.080;11.896;2023-04-30T09:36:19;10.77;;;7.05;;
33266;SDS011;19638;49.080;11.896;2023-04-30T09:40:33;10.63;;;6.88;;
33266;SDS011;19638;49.080;11.896;2023-04-30T09:44:41;8.85;;;5.55;;
33266;SDS011;19638;49.080;11.896;2023-04-30T09:48:44;6.47;;;5.85;;
33266;SDS011;19638;49.080;11.896;2023-04-30T09:52:50;7.93;;;5.85;;
33266;SDS011;19638;49.080;11.896;2023-04-30T09:56:59;10.60;;;4.75;;
33266;SDS011;19638;49.080;11.896;2023-04-30T10:01:04;9.90;;;5.50;;
33266;SDS011;19638;49.080;11.896;2023-04-30T10:05:08;6.22;;;5.45;;
33266;SDS011;19638;49.080;11.896;2023-04-30T10:09:12;6.07;;;5.50;;
33266;SDS011;19638;49.080;11.896;2023-04-30T10:13:18;6.85;;;5.10;;
33266;SDS011;19638;49.080;11.896;2023-04-30T10:17:22;6.00;;;5.00;;
33266;SDS011;19638;49.080;11.896;2023-04-30T10:21:29;8.88;;;5.25;;
33266;SDS011;19638;49.080;11.896;2023-04-30T10:25:34;6.40;;;5.25;;
33266;SDS011;19638;49.080;11.896;2023-04-30T10:29:43;8.48;;;6.13;;
33266;SDS011;19638;49.080;11.896;2023-04-30T10:33:50;7.57;;;5.13;;
33266;SDS011;19638;49.080;11.896;2023-04-30T10:38:06;5.45;;;4.80;;
33266;SDS011;19638;49.080;11.896;2023-04-30T10:42:25;5.97;;;4.13;;
33266;SDS011;19638;49.080;11.896;2023-04-30T10:46:30;5.57;;;3.70;;
33266;SDS011;19638;49.080;11.896;2023-04-30T10:50:39;6.45;;;3.80;;
33266;SDS011;19638;49.080;11.896;2023-04-30T10:54:48;3.95;;;3.38;;
33266;SDS011;19638;49.080;11.896;2023-04-30T10:58:57;4.07;;;3.58;;
33266;SDS011;19638;49.080;11.896;2023-04-30T11:03:02;3.58;;;3.28;;
33266;SDS011;19638;49.080;11.896;2023-04-30T11:07:06;4.05;;;3.60;;
33266;SDS011;19638;49.080;11.896;2023-04-30T11:11:11;6.40;;;3.38;;
33266;SDS011;19638;49.080;11.896;2023-04-30T11:15:23;6.20;;;3.60;;
33266;SDS011;19638;49.080;11.896;2023-04-30T11:19:29;3.85;;;3.53;;
33266;SDS011;19638;49.080;11.896;2023-04-30T11:23:35;4.85;;;3.55;;
33266;SDS011;19638;49.080;11.896;2023-04-30T11:27:42;3.60;;;3.33;;
33266;SDS011;19638;49.080;11.896;2023-04-30T11:31:46;4.25;;;3.60;;
33266;SDS011;19638;49.080;11.896;2023-04-30T11:35:51;4.25;;;3.42;;
33266;SDS011;19638;49.080;11.896;2023-04-30T11:39:59;6.30;;;3.60;;
33266;SDS011;19638;49.080;11.896;2023-04-30T11:44:08;4.13;;;3.80;;
33266;SDS011;19638;49.080;11.896;2023-04-30T11:48:24;4.65;;;3.78;;
33266;SDS011;19638;49.080;11.896;2023-04-30T11:52:38;7.07;;;3.60;;
33266;SDS011;19638;49.080;11.896;2023-04-30T11:56:46;3.78;;;3.45;;
33266;SDS011;19638;49.080;11.896;2023-04-30T12:00:55;7.45;;;3.75;;
33266;SDS011;19638;49.080;11.896;2023-04-30T12:05:04;5.43;;;3.67;;
33266;SDS011;19638;49.080;11.896;2023-04-30T12:09:15;7.97;;;3.80;;
33266;SDS011;19638;49.080;11.896;2023-04-30T12:13:18;5.65;;;3.70;;
33266;SDS011;19638;49.080;11.896;2023-04-30T12:17:31;4.70;;;3.30;;
33266;SDS011;19638;49.080;11.896;2023-04-30T12:21:35;3.72;;;3.25;;
33266;SDS011;19638;49.080;11.896;2023-04-30T12:25:41;3.85;;;3.10;;
33266;SDS011;19638;49.080;11.896;2023-04-30T12:29:44;3.10;;;2.72;;
33266;SDS011;19638;49.080;11.896;2023-04-30T12:33:56;4.05;;;2.92;;
33266;SDS011;19638;49.080;11.896;2023-04-30T12:38:03;3.85;;;3.03;;
33266;SDS011;19638;49.080;11.896;2023-04-30T12:42:09;4.05;;;2.97;;
33266;SDS011;19638;49.080;11.896;2023-04-30T12:46:13;3.35;;;3.10;;
33266;SDS011;19638;49.080;11.896;2023-04-30T12:50:29;3.25;;;2.95;;
33266;SDS011;19638;49.080;11.896;2023-04-30T12:54:33;3.45;;;3.15;;
33266;SDS011;19638;49.080;11.896;2023-04-30T12:58:41;3.42;;;2.75;;
33266;SDS011;19638;49.080;11.896;2023-04-30T13:02:47;3.80;;;2.70;;
33266;SDS011;19638;49.080;11.896;2023-04-30T13:06:56;3.53;;;2.50;;
33266;SDS011;19638;49.080;11.896;2023-04-30T13:11:02;3.70;;;2.80;;
33266;SDS011;19638;49.080;11.896;2023-04-30T13:15:09;2.55;;;2.35;;
33266;SDS011;19638;49.080;11.896;2023-04-30T13:19:12;5.35;;;2.60;;
33266;SDS011;19638;49.080;11.896;2023-04-30T13:23:15;3.58;;;3.13;;
33266;SDS011;19638;49.080;11.896;2023-04-30T13:27:20;3.50;;;2.85;;
33266;SDS011;19638;49.080;11.896;2023-04-30T13:31:25;6.00;;;2.80;;
33266;SDS011;19638;49.080;11.896;2023-04-30T13:35:29;4.18;;;2.40;;
33266;SDS011;19638;49.080;11.896;2023-04-30T13:39:32;2.40;;;2.30;;
33266;SDS011;19638;49.080;11.896;2023-04-30T13:43:44;4.75;;;2.38;;
33266;SDS011;19638;49.080;11.896;2023-04-30T13:47:49;2.85;;;2.65;;
33266;SDS011;19638;49.080;11.896;2023-04-30T13:51:52;4.35;;;2.50;;
33266;SDS011;19638;49.080;11.896;2023-04-30T13:55:56;8.63;;;2.80;;
33266;SDS011;19638;49.080;11.896;2023-04-30T14:00:06;3.08;;;2.45;;
33266;SDS011;19638;49.080;11.896;2023-04-30T14:04:11;3.00;;;2.35;;
33266;SDS011;19638;49.080;11.896;2023-04-30T14:08:15;2.55;;;2.20;;
33266;SDS011;19638;49.080;11.896;2023-04-30T14:12:22;2.47;;;2.28;;
33266;SDS011;19638;49.080;11.896;2023-04-30T14:16:25;2.35;;;2.25;;
33266;SDS011;19638;49.080;11.896;2023-04-30T14:20:30;2.50;;;2.30;;
33266;SDS011;19638;49.080;11.896;2023-04-30T14:24:33;2.33;;;2.22;;
33266;SDS011;19638;49.080;11.896;2023-04-30T14:28:36;2.40;;;2.30;;
33266;SDS011;19638;49.080;11.896;2023-04-30T14:32:39;2.80;;;2.60;;
33266;SDS011;19638;49.080;11.896;2023-04-30T14:36:48;3.55;;;2.40;;
33266;SDS011;19638;49.080;11.896;2023-04-30T14:40:54;3.63;;;2.60;;
33266;SDS011;19638;49.080;11.896;2023-04-30T14:45:01;2.28;;;2.08;;
33266;SDS011;19638;49.080;11.896;2023-04-30T14:49:05;2.30;;;2.20;;
33266;SDS011;19638;49.080;11.896;2023-04-30T14:53:09;2.13;;;2.00;;
33266;SDS011;19638;49.080;11.896;2023-04-30T14:57:13;2.47;;;2.30;;
33266;SDS011;19638;49.080;11.896;2023-04-30T15:01:19;2.25;;;2.15;;
33266;SDS011;19638;49.080;11.896;2023-04-30T15:05:23;3.08;;;2.47;;
33266;SDS011;19638;49.080;11.896;2023-04-30T15:09:27;2.30;;;2.10;;
33266;SDS011;19638;49.080;11.896;2023-04-30T15:13:33;2.25;;;2.15;;
33266;SDS011;19638;49.080;11.896;2023-04-30T15:17:42;3.55;;;2.10;;
33266;SDS011;19638;49.080;11.896;2023-04-30T15:21:45;2.30;;;2.20;;
33266;SDS011;19638;49.080;11.896;2023-04-30T15:26:07;2.88;;;2.47;;
33266;SDS011;19638;49.080;11.896;2023-04-30T15:30:10;4.72;;;2.30;;
33266;SDS011;19638;49.080;11.896;2023-04-30T15:34:15;3.28;;;2.00;;
33266;SDS011;19638;49.080;11.896;2023-04-30T15:38:18;8.02;;;2.25;;
33266;SDS011;19638;49.080;11.896;2023-04-30T15:42:23;2.40;;;2.10;;
33266;SDS011;19638;49.080;11.896;2023-04-30T15:46:31;5.18;;;2.38;;
33266;SDS011;19638;49.080;11.896;2023-04-30T15:50:35;2.67;;;2.50;;
33266;SDS011;19638;49.080;11.896;2023-04-30T15:54:40;2.55;;;2.38;;
33266;SDS011;19638;49.080;11.896;2023-04-30T15:58:44;4.38;;;2.65;;
33266;SDS011;19638;49.080;11.896;2023-04-30T16:02:47;2.70;;;2.50;;
33266;SDS011;19638;49.080;11.896;2023-04-30T16:06:51;2.53;;;2.35;;
33266;SDS011;19638;49.080;11.896;2023-04-30T16:10:54;2.40;;;2.20;;
33266;SDS011;19638;49.080;11.896;2023-04-30T16:15:07;5.18;;;2.15;;
33266;SDS011;19638;49.080;11.896;2023-04-30T16:19:16;3.25;;;2.25;;
33266;SDS011;19638;49.080;11.896;2023-04-30T16:23:22;3.35;;;2.40;;
33266;SDS011;19638;49.080;11.896;2023-04-30T16:27:25;2.15;;;2.03;;
33266;SDS011;19638;49.080;11.896;2023-04-30T16:31:30;2.33;;;2.22;;
33266;SDS011;19638;49.080;11.896;2023-04-30T16:35:33;3.15;;;2.25;;
33266;SDS011;19638;49.080;11.896;2023-04-30T16:39:37;2.67;;;2.35;;
33266;SDS011;19638;49.080;11.896;2023-04-30T16:43:40;2.50;;;2.30;;
33266;SDS011;19638;49.080;11.896;2023-04-30T16:47:53;4.03;;;2.28;;
33266;SDS011;19638;49.080;11.896;2023-04-30T16:51:56;2.40;;;2.30;;
33266;SDS011;19638;49.080;11.896;2023-04-30T16:55:59;2.35;;;2.25;;
33266;SDS011;19638;49.080;11.896;2023-04-30T17:00:05;2.08;;;1.98;;
33266;SDS011;19638;49.080;11.896;2023-04-30T17:04:10;3.83;;;2.35;;
33266;SDS011;19638;49.080;11.896;2023-04-30T17:08:17;2.25;;;2.13;;
33266;SDS011;19638;49.080;11.896;2023-04-30T17:12:20;2.95;;;2.47;;
33266;SDS011;19638;49.080;11.896;2023-04-30T17:16:28;2.80;;;2.60;;
33266;SDS011;19638;49.080;11.896;2023-04-30T17:20:33;2.97;;;2.20;;
33266;SDS011;19638;49.080;11.896;2023-04-30T17:24:37;3.75;;;2.58;;
33266;SDS011;19638;49.080;11.896;2023-04-30T17:28:43;2.50;;;2.30;;
33266;SDS011;19638;49.080;11.896;2023-04-30T17:32:46;3.42;;;3.17;;
33266;SDS011;19638;49.080;11.896;2023-04-30T17:36:51;2.88;;;2.67;;
33266;SDS011;19638;49.080;11.896;2023-04-30T17:40:54;3.40;;;3.20;;
33266;SDS011;19638;49.080;11.896;2023-04-30T17:45:01;2.35;;;2.25;;
33266;SDS011;19638;49.080;11.896;2023-04-30T17:49:05;3.08;;;2.67;;
33266;SDS011;19638;49.080;11.896;2023-04-30T17:53:10;3.38;;;2.90;;
33266;SDS011;19638;49.080;11.896;2023-04-30T17:57:13;3.22;;;2.92;;
33266;SDS011;19638;49.080;11.896;2023-04-30T18:01:16;9.20;;;4.18;;
33266;SDS011;19638;49.080;11.896;2023-04-30T18:05:23;13.65;;;6.65;;
33266;SDS011;19638;49.080;11.896;2023-04-30T18:09:30;7.90;;;4.55;;
33266;SDS011;19638;49.080;11.896;2023-04-30T18:13:36;14.88;;;6.60;;
33266;SDS011;19638;49.080;11.896;2023-04-30T18:17:39;10.20;;;5.03;;
33266;SDS011;19638;49.080;11.896;2023-04-30T18:21:44;6.05;;;3.85;;
33266;SDS011;19638;49.080;11.896;2023-04-30T18:25:50;3.55;;;2.85;;
33266;SDS011;19638;49.080;11.896;2023-04-30T18:29:54;6.03;;;3.72;;
33266;SDS011;19638;49.080;11.896;2023-04-30T18:33:58;4.53;;;3.22;;
33266;SDS011;19638;49.080;11.896;2023-04-30T18:38:04;5.40;;;3.28;;
33266;SDS011;19638;49.080;11.896;2023-04-30T18:42:19;3.53;;;3.15;;
33266;SDS011;19638;49.080;11.896;2023-04-30T18:46:23;3.80;;;2.60;;
33266;SDS011;19638;49.080;11.896;2023-04-30T18:50:26;2.92;;;2.60;;
33266;SDS011;19638;49.080;11.896;2023-04-30T18:54:33;4.47;;;2.40;;
33266;SDS011;19638;49.080;11.896;2023-04-30T18:58:37;2.35;;;2.15;;
33266;SDS011;19638;49.080;11.896;2023-04-30T19:02:41;2.72;;;2.40;;
33266;SDS011;19638;49.080;11.896;2023-04-30T19:06:44;4.65;;;2.22;;
33266;SDS011;19638;49.080;11.896;2023-04-30T19:20:29;2.70;;;1.83;;
33266;SDS011;19638;49.080;11.896;2023-04-30T19:24:42;2.10;;;2.00;;
33266;SDS011;19638;49.080;11.896;2023-04-30T19:29:19;3.28;;;2.30;;
33266;SDS011;19638;49.080;11.896;2023-04-30T19:33:23;2.33;;;2.13;;
33266;SDS011;19638;49.080;11.896;2023-04-30T19:56:48;4.03;;;2.15;;
33266;SDS011;19638;49.080;11.896;2023-04-30T20:01:07;2.92;;;2.60;;
33266;SDS011;19638;49.080;11.896;2023-04-30T20:14:48;4.57;;;2.95;;
33266;SDS011;19638;49.080;11.896;2023-04-30T20:18:51;4.82;;;2.53;;
33266;SDS011;19638;49.080;11.896;2023-04-30T20:22:57;2.65;;;2.42;;
33266;SDS011;19638;49.080;11.896;2023-04-30T20:27:00;3.33;;;2.35;;
33266;SDS011;19638;49.080;11.896;2023-04-30T20:31:05;2.50;;;2.30;;
33266;SDS011;19638;49.080;11.896;2023-04-30T20:35:10;3.65;;;2.80;;
33266;SDS011;19638;49.080;11.896;2023-04-30T20:39:15;2.60;;;2.40;;
33266;SDS011;19638;49.080;11.896;2023-04-30T20:43:21;2.63;;;2.25;;
33266;SDS011;19638;49.080;11.896;2023-04-30T20:47:26;2.47;;;2.25;;
33266;SDS011;19638;49.080;11.896;2023-04-30T20:51:29;5.80;;;2.30;;
33266;SDS011;19638;49.080;11.896;2023-04-30T20:55:37;2.42;;;2.22;;
33266;SDS011;19638;49.080;11.896;2023-04-30T20:59:43;2.47;;;2.28;;
33266;SDS011;19638;49.080;11.896;2023-04-30T21:03:50;5.00;;;2.83;;
33266;SDS011;19638;49.080;11.896;2023-04-30T21:07:55;3.97;;;2.88;;
33266;SDS011;19638;49.080;11.896;2023-04-30T21:12:18;3.88;;;2.40;;
33266;SDS011;19638;49.080;11.896;2023-04-30T21:32:34;5.75;;;2.78;;
33266;SDS011;19638;49.080;11.896;2023-04-30T21:42:43;4.20;;;2.40;;
33266;SDS011;19638;49.080;11.896;2023-04-30T21:47:14;3.70;;;2.83;;
33266;SDS011;19638;49.080;11.896;2023-04-30T22:08:03;5.80;;;3.47;;
33266;SDS011;19638;49.080;11.896;2023-04-30T22:13:06;7.07;;;3.67;;
33266;SDS011;19638;49.080;11.896;2023-04-30T22:17:14;5.47;;;3.92;;
33266;SDS011;19638;49.080;11.896;2023-04-30T22:21:31;5.97;;;3.60;;
33266;SDS011;19638;49.080;11.896;2023-04-30T22:25:34;6.97;;;4.13;;
33266;SDS011;19638;49.080;11.896;2023-04-30T22:29:37;6.10;;;3.85;;
33266;SDS011;19638;49.080;11.896;2023-04-30T22:33:40;4.72;;;4.22;;
33266;SDS011;19638;49.080;11.896;2023-04-30T22:37:50;4.70;;;3.70;;
33266;SDS011;19638;49.080;11.896;2023-04-30T22:41:55;6.53;;;4.00;;
33266;SDS011;19638;49.080;11.896;2023-04-30T22:45:59;6.63;;;4.30;;
33266;SDS011;19638;49.080;11.896;2023-04-30T22:50:05;8.07;;;3.97;;
33266;SDS011;19638;49.080;11.896;2023-04-30T22:54:12;4.57;;;3.83;;
33266;SDS011;19638;49.080;11.896;2023-04-30T22:58:16;5.90;;;3.80;;
33266;SDS011;19638;49.080;11.896;2023-04-30T23:02:19;6.43;;;4.00;;
33266;SDS011;19638;49.080;11.896;2023-04-30T23:06:22;5.47;;;4.03;;
33266;SDS011;19638;49.080;11.896;2023-04-30T23:10:27;5.97;;;4.57;;
33266;SDS011;19638;49.080;11.896;2023-04-30T23:14:30;6.43;;;4.20;;
33266;SDS011;19638;49.080;11.896;2023-04-30T23:18:35;5.28;;;4.40;;
33266;SDS011;19638;49.080;11.896;2023-04-30T23:22:38;8.95;;;4.93;;
33266;SDS011;19638;49.080;11.896;2023-04-30T23:26:42;6.10;;;4.63;;
33266;SDS011;19638;49.080;11.896;2023-04-30T23:30:50;6.82;;;4.32;;
33266;SDS011;19638;49.080;11.896;2023-04-30T23:34:55;9.30;;;5.03;;
33266;SDS011;19638;49.080;11.896;2023-04-30T23:38:58;10.90;;;4.70;;
33266;SDS011;19638;49.080;11.896;2023-04-30T23:43:03;7.03;;;4.70;;
33266;SDS011;19638;49.080;11.896;2023-04-30T23:47:08;7.67;;;4.87;;
33266;SDS011;19638;49.080;11.896;2023-04-30T23:51:11;6.53;;;4.60;;
33266;SDS011;19638;49.080;11.896;2023-04-30T23:55:18;6.97;;;4.87;;
33266;SDS011;19638;49.080;11.896;2023-04-30T23:59:27;7.05;;;4.75;;
